createdAt,value
2022-10-19T00:01:24.606Z,99.90
2022-10-19T00:03:54.193Z,99.90
2022-10-19T00:06:26.061Z,99.90
2022-10-19T00:08:59.357Z,99.90
2022-10-19T00:11:27.569Z,99.90
2022-10-19T00:13:56.275Z,99.90
2022-10-19T00:16:25.029Z,99.90
2022-10-19T00:18:52.711Z,99.90
2022-10-19T00:21:22.609Z,99.90
2022-10-19T00:23:50.057Z,99.90
2022-10-19T00:26:19.954Z,99.90
2022-10-19T00:28:47.383Z,99.90
2022-10-19T00:31:17.040Z,99.90
2022-10-19T00:33:46.771Z,99.90
2022-10-19T00:36:24.372Z,99.90
2022-10-19T00:38:52.823Z,99.90
2022-10-19T00:41:22.175Z,99.90
2022-10-19T00:43:59.959Z,99.90
2022-10-19T00:46:30.778Z,99.90
2022-10-19T00:49:05.868Z,99.90
2022-10-19T00:51:39.507Z,99.90
2022-10-19T00:54:08.557Z,99.90
2022-10-19T00:56:38.682Z,99.90
2022-10-19T00:59:08.866Z,99.90
2022-10-19T01:01:38.837Z,99.90
2022-10-19T01:04:06.244Z,99.90
2022-10-19T01:06:36.516Z,99.90
2022-10-19T01:09:06.264Z,99.90
2022-10-19T01:12:01.234Z,99.90
2022-10-19T01:14:39.506Z,99.90
2022-10-19T01:17:18.778Z,99.90
2022-10-19T01:20:07.558Z,99.90
2022-10-19T01:22:56.544Z,99.90
2022-10-19T01:25:29.437Z,99.90
2022-10-19T01:28:15.675Z,99.90
2022-10-19T01:30:59.338Z,99.90
2022-10-19T01:33:54.809Z,99.90
2022-10-19T01:36:48.504Z,99.90
2022-10-19T01:39:33.856Z,99.90
2022-10-19T01:42:06.225Z,99.90
2022-10-19T01:44:40.134Z,99.90
2022-10-19T01:47:21.062Z,99.90
2022-10-19T01:49:59.980Z,99.90
2022-10-19T01:52:30.410Z,99.90
2022-10-19T01:55:01.022Z,99.90
2022-10-19T01:57:39.113Z,99.90
2022-10-19T02:00:09.074Z,99.90
2022-10-19T02:02:39.512Z,99.90
2022-10-19T02:05:08.867Z,99.90
2022-10-19T02:07:42.034Z,99.90
2022-10-19T02:10:12.135Z,99.90
2022-10-19T02:12:40.568Z,99.90
2022-10-19T02:15:12.609Z,99.90
2022-10-19T02:17:45.987Z,99.90
2022-10-19T02:20:17.049Z,99.90
2022-10-19T02:22:44.435Z,99.90
2022-10-19T02:25:12.873Z,99.90
2022-10-19T02:27:42.696Z,99.90
2022-10-19T02:30:15.656Z,99.90
2022-10-19T02:32:44.209Z,99.90
2022-10-19T02:35:15.524Z,99.90
2022-10-19T02:37:43.090Z,99.90
2022-10-19T02:40:12.096Z,99.90
2022-10-19T02:42:57.703Z,99.90
2022-10-19T02:45:43.105Z,99.90
2022-10-19T02:48:19.517Z,99.90
2022-10-19T02:50:49.115Z,99.90
2022-10-19T02:53:16.781Z,99.90
2022-10-19T02:55:44.431Z,99.90
2022-10-19T02:58:13.789Z,99.90
2022-10-19T03:00:41.342Z,99.90
2022-10-19T03:03:09.557Z,99.90
2022-10-19T03:05:36.737Z,99.90
2022-10-19T03:08:04.241Z,99.90
2022-10-19T03:10:31.486Z,99.90
2022-10-19T03:12:58.739Z,99.90
2022-10-19T03:15:29.153Z,99.90
2022-10-19T03:17:58.702Z,99.90
2022-10-19T03:20:25.984Z,99.90
2022-10-19T03:25:25.708Z,99.90
2022-10-19T03:27:53.018Z,99.90
2022-10-19T03:30:22.495Z,99.90
2022-10-19T03:32:49.788Z,99.90
2022-10-19T03:35:21.766Z,99.90
2022-10-19T03:37:48.998Z,99.90
2022-10-19T03:40:16.278Z,99.90
2022-10-19T03:42:43.438Z,99.90
2022-10-19T03:45:12.897Z,99.90
2022-10-19T03:47:40.048Z,99.90
2022-10-19T03:50:11.091Z,99.90
2022-10-19T03:52:38.705Z,99.90
2022-10-19T03:55:06.704Z,99.90
2022-10-19T03:57:34.187Z,99.90
2022-10-19T04:00:01.797Z,99.90
2022-10-19T04:02:31.770Z,99.90
2022-10-19T04:04:58.963Z,99.90
2022-10-19T04:07:26.139Z,99.90
2022-10-19T04:09:55.926Z,99.90
2022-10-19T04:12:23.117Z,99.90
2022-10-19T04:14:57.318Z,99.90
2022-10-19T04:17:27.854Z,99.90
2022-10-19T04:19:55.069Z,99.90
2022-10-19T04:22:22.278Z,99.90
2022-10-19T04:24:49.977Z,99.90
2022-10-19T04:27:17.810Z,99.90
2022-10-19T04:29:45.031Z,99.90
2022-10-19T04:32:12.742Z,99.90
2022-10-19T04:34:40.243Z,99.90
2022-10-19T04:37:07.534Z,99.90
2022-10-19T04:39:39.489Z,99.90
2022-10-19T04:42:07.084Z,99.90
2022-10-19T04:44:34.757Z,99.90
2022-10-19T04:47:02.097Z,99.90
2022-10-19T04:49:32.193Z,99.90
2022-10-19T04:51:59.802Z,99.90
2022-10-19T04:54:29.535Z,99.90
2022-10-19T04:56:56.732Z,99.90
2022-10-19T04:59:24.425Z,99.90
2022-10-19T05:01:53.850Z,99.90
2022-10-19T05:04:21.122Z,99.90
2022-10-19T05:06:48.814Z,99.90
2022-10-19T05:09:16.069Z,99.90
2022-10-19T05:11:44.319Z,99.90
2022-10-19T05:14:11.517Z,99.90
2022-10-19T05:16:39.229Z,99.90
2022-10-19T05:19:06.487Z,99.90
2022-10-19T05:21:34.114Z,99.90
2022-10-19T05:24:01.419Z,99.90
2022-10-19T05:26:29.589Z,99.90
2022-10-19T05:29:01.640Z,99.90
2022-10-19T05:31:33.537Z,99.90
2022-10-19T05:34:04.116Z,99.90
2022-10-19T05:36:37.534Z,99.90
2022-10-19T05:39:16.307Z,99.90
2022-10-19T05:41:44.994Z,99.90
2022-10-19T05:44:20.933Z,99.90
2022-10-19T05:46:49.993Z,99.90
2022-10-19T05:49:22.229Z,99.90
2022-10-19T05:51:50.764Z,99.90
2022-10-19T05:54:18.267Z,99.90
2022-10-19T05:56:48.440Z,99.90
2022-10-19T05:59:18.750Z,99.90
2022-10-19T06:01:49.224Z,99.90
2022-10-19T06:06:51.147Z,99.90
2022-10-19T06:09:19.055Z,99.90
2022-10-19T06:11:46.262Z,99.90
2022-10-19T06:14:18.572Z,99.90
2022-10-19T06:16:48.842Z,99.90
2022-10-19T06:19:18.272Z,99.90
2022-10-19T06:21:46.263Z,99.90
2022-10-19T06:24:14.144Z,99.90
2022-10-19T06:26:41.357Z,99.90
2022-10-19T06:29:09.373Z,99.90
2022-10-19T06:31:39.116Z,99.90
2022-10-19T06:34:07.182Z,99.90
2022-10-19T06:36:39.130Z,99.90
2022-10-19T06:39:08.990Z,99.90
2022-10-19T06:41:36.663Z,99.90
2022-10-19T06:44:03.911Z,99.90
2022-10-19T06:46:33.908Z,99.90
2022-10-19T06:49:02.254Z,99.90
2022-10-19T06:51:32.172Z,99.90
2022-10-19T06:54:01.934Z,99.90
2022-10-19T06:56:29.194Z,99.90
2022-10-19T06:58:57.635Z,99.90
2022-10-19T07:01:25.202Z,99.90
2022-10-19T07:03:55.910Z,99.90
2022-10-19T07:06:24.044Z,99.90
2022-10-19T07:08:52.891Z,99.90
2022-10-19T07:11:22.509Z,99.90
2022-10-19T07:13:52.528Z,99.90
2022-10-19T07:16:21.625Z,99.90
2022-10-19T07:18:53.230Z,99.90
2022-10-19T07:21:23.710Z,99.90
2022-10-19T07:23:53.325Z,99.90
2022-10-19T07:26:24.576Z,99.90
2022-10-19T07:28:52.393Z,99.90
2022-10-19T07:31:22.804Z,99.90
2022-10-19T07:33:53.815Z,99.90
2022-10-19T07:36:22.145Z,99.90
2022-10-19T07:38:49.468Z,99.90
2022-10-19T07:41:23.751Z,99.90
2022-10-19T07:43:51.972Z,99.90
2022-10-19T07:46:27.213Z,99.90
2022-10-19T07:48:55.088Z,99.90
2022-10-19T07:51:25.344Z,99.90
2022-10-19T07:53:53.336Z,99.90
2022-10-19T07:56:25.531Z,99.90
2022-10-19T07:58:56.774Z,99.90
2022-10-19T08:01:35.462Z,99.90
2022-10-19T08:06:52.878Z,99.90
2022-10-19T08:09:47.459Z,99.90
2022-10-19T08:12:12.385Z,99.90
2022-10-19T08:14:42.017Z,99.90
2022-10-19T08:17:16.533Z,99.90
2022-10-19T08:19:44.826Z,99.90
2022-10-19T08:22:15.012Z,99.90
2022-10-19T08:24:42.216Z,99.90
2022-10-19T08:27:09.512Z,99.90
2022-10-19T08:29:36.730Z,99.90
2022-10-19T08:32:04.029Z,99.90
2022-10-19T08:34:32.962Z,99.90
2022-10-19T08:37:06.837Z,99.90
2022-10-19T08:39:42.202Z,99.90
2022-10-19T08:42:18.361Z,99.90
2022-10-19T08:45:03.567Z,99.90
2022-10-19T08:48:02.619Z,99.90
2022-10-19T08:50:38.966Z,99.90
2022-10-19T08:53:31.810Z,99.90
2022-10-19T08:56:08.217Z,99.90
2022-10-19T08:59:02.459Z,99.90
2022-10-19T09:01:46.940Z,99.90
2022-10-19T09:04:25.955Z,99.90
2022-10-19T09:07:12.539Z,99.90
2022-10-19T09:12:33.080Z,99.90
2022-10-19T09:15:12.378Z,99.90
2022-10-19T09:17:41.825Z,99.90
2022-10-19T09:20:23.574Z,99.90
2022-10-19T09:23:13.480Z,99.90
2022-10-19T09:25:41.282Z,99.90
2022-10-19T09:28:43.154Z,99.90
2022-10-19T09:31:20.878Z,99.90
2022-10-19T09:33:57.150Z,99.90
2022-10-19T09:36:49.468Z,99.90
2022-10-19T09:39:18.028Z,99.70
2022-10-19T09:41:51.782Z,99.60
2022-10-19T09:44:19.829Z,98.20
2022-10-19T09:47:07.150Z,98.00
2022-10-19T09:49:42.282Z,97.90
2022-10-19T09:52:31.445Z,96.90
2022-10-19T09:55:19.618Z,97.70
2022-10-19T09:57:49.598Z,96.40
2022-10-19T10:00:25.521Z,96.40
2022-10-19T10:02:57.368Z,96.30
2022-10-19T10:05:39.435Z,97.40
2022-10-19T10:08:19.602Z,95.10
2022-10-19T10:10:53.746Z,97.00
2022-10-19T10:13:25.364Z,96.60
2022-10-19T10:16:04.574Z,95.50
2022-10-19T10:18:37.994Z,96.00
2022-10-19T10:21:12.485Z,95.40
2022-10-19T10:23:40.458Z,95.40
2022-10-19T10:26:18.937Z,95.60
2022-10-19T10:28:51.309Z,95.50
2022-10-19T10:31:26.557Z,94.00
2022-10-19T10:34:16.264Z,93.00
2022-10-19T10:36:53.751Z,94.30
2022-10-19T10:39:21.018Z,94.50
2022-10-19T10:41:49.305Z,94.30
2022-10-19T10:44:29.830Z,94.50
2022-10-19T10:47:05.593Z,94.20
2022-10-19T10:49:37.561Z,94.70
2022-10-19T10:52:14.718Z,95.30
2022-10-19T10:55:03.248Z,94.70
2022-10-19T10:57:47.257Z,95.10
2022-10-19T11:00:18.981Z,93.80
2022-10-19T11:02:56.544Z,94.80
2022-10-19T11:05:31.178Z,94.90
2022-10-19T11:08:24.577Z,95.70
2022-10-19T11:10:52.110Z,94.40
2022-10-19T11:13:43.939Z,94.70
2022-10-19T11:16:17.004Z,95.60
2022-10-19T11:19:02.869Z,97.60
2022-10-19T11:21:45.373Z,97.30
2022-10-19T11:24:23.293Z,97.50
2022-10-19T11:27:23.040Z,97.40
2022-10-19T11:30:07.730Z,97.10
2022-10-19T11:33:00.002Z,96.40
2022-10-19T11:35:53.247Z,95.80
2022-10-19T11:38:41.031Z,96.60
2022-10-19T11:41:34.935Z,95.50
2022-10-19T11:44:05.290Z,96.00
2022-10-19T11:47:00.234Z,96.60
2022-10-19T11:49:47.714Z,96.60
2022-10-19T11:52:33.257Z,95.20
2022-10-19T11:55:03.743Z,95.90
2022-10-19T11:58:07.593Z,95.10
2022-10-19T12:00:53.639Z,96.20
2022-10-19T12:03:52.599Z,96.90
2022-10-19T12:06:26.418Z,96.20
2022-10-19T12:09:34.045Z,97.20
2022-10-19T12:12:14.564Z,97.50
2022-10-19T12:14:48.532Z,98.30
2022-10-19T12:17:29.375Z,99.40
2022-10-19T12:20:02.398Z,98.50
2022-10-19T12:22:33.387Z,98.70
2022-10-19T12:25:04.958Z,98.20
2022-10-19T12:27:38.348Z,99.10
2022-10-19T12:30:23.432Z,99.80
2022-10-19T12:33:15.308Z,99.90
2022-10-19T12:35:53.956Z,99.90
2022-10-19T12:39:00.647Z,99.90
2022-10-19T12:41:46.053Z,99.60
2022-10-19T12:44:57.869Z,99.20
2022-10-19T12:47:29.776Z,97.90
2022-10-19T12:50:01.500Z,97.40
2022-10-19T12:52:42.663Z,98.90
2022-10-19T12:55:16.326Z,98.00
2022-10-19T12:57:48.395Z,97.70
2022-10-19T13:00:24.325Z,96.60
2022-10-19T13:03:23.910Z,96.30
2022-10-19T13:05:59.170Z,95.90
2022-10-19T13:08:39.501Z,95.00
2022-10-19T13:11:15.541Z,95.40
2022-10-19T13:14:01.960Z,94.60
2022-10-19T13:16:33.901Z,94.20
2022-10-19T13:19:13.099Z,94.20
2022-10-19T13:22:38.683Z,93.20
2022-10-19T13:25:21.499Z,94.40
2022-10-19T13:27:58.100Z,94.90
2022-10-19T13:30:48.478Z,94.70
2022-10-19T13:33:34.834Z,95.30
2022-10-19T13:36:05.075Z,94.00
2022-10-19T13:38:37.293Z,94.00
2022-10-19T13:41:10.576Z,95.30
2022-10-19T13:44:20.843Z,95.20
2022-10-19T13:47:31.590Z,94.30
2022-10-19T13:50:08.031Z,95.00
2022-10-19T13:53:03.184Z,96.10
2022-10-19T13:55:55.751Z,96.10
2022-10-19T13:58:28.241Z,96.20
2022-10-19T14:01:11.029Z,96.10
2022-10-19T14:03:53.316Z,95.60
2022-10-19T14:06:41.173Z,96.40
2022-10-19T14:10:03.276Z,96.80
2022-10-19T14:12:34.062Z,97.80
2022-10-19T14:15:14.352Z,97.60
2022-10-19T14:17:42.568Z,97.50
2022-10-19T14:20:39.812Z,98.00
2022-10-19T14:23:20.643Z,97.80
2022-10-19T14:25:54.076Z,99.00
2022-10-19T14:28:22.759Z,99.40
2022-10-19T14:31:06.768Z,99.90
2022-10-19T14:33:37.772Z,99.90
2022-10-19T14:36:14.904Z,99.90
2022-10-19T14:38:46.129Z,99.90
2022-10-19T14:41:29.008Z,99.90
2022-10-19T14:43:57.656Z,99.90
2022-10-19T14:46:30.811Z,99.90
2022-10-19T14:49:06.316Z,99.90
2022-10-19T14:51:54.802Z,99.90
2022-10-19T14:54:41.250Z,99.90
2022-10-19T14:57:25.732Z,99.90
2022-10-19T14:59:59.357Z,99.90
2022-10-19T15:02:39.548Z,99.90
2022-10-19T15:05:20.257Z,99.90
2022-10-19T15:07:48.225Z,99.90
2022-10-19T15:10:21.933Z,99.90
2022-10-19T15:12:53.563Z,99.90
2022-10-19T15:15:29.084Z,99.90
2022-10-19T15:18:00.337Z,99.90
2022-10-19T15:20:43.984Z,99.90
2022-10-19T15:23:49.511Z,99.90
2022-10-19T15:26:28.010Z,99.90
2022-10-19T15:29:07.363Z,99.90
2022-10-19T15:31:34.872Z,99.90
2022-10-19T15:34:03.442Z,99.90
2022-10-19T15:36:32.835Z,99.90
2022-10-19T15:39:24.606Z,99.90
2022-10-19T15:41:53.329Z,99.90
2022-10-19T15:44:43.418Z,99.90
2022-10-19T15:47:17.267Z,99.90
2022-10-19T15:49:44.971Z,99.90
2022-10-19T15:52:16.842Z,99.90
2022-10-19T15:54:48.076Z,99.90
2022-10-19T15:57:37.580Z,99.90
2022-10-19T16:00:17.304Z,99.90
2022-10-19T16:02:45.222Z,99.90
2022-10-19T16:05:15.349Z,99.90
2022-10-19T16:07:43.160Z,99.90
2022-10-19T16:10:19.866Z,99.90
2022-10-19T16:12:47.366Z,99.90
2022-10-19T16:15:17.471Z,99.90
2022-10-19T16:17:49.776Z,99.90
2022-10-19T16:20:18.443Z,99.90
2022-10-19T16:22:46.854Z,99.90
2022-10-19T16:25:14.759Z,99.90
2022-10-19T16:27:42.291Z,99.90
2022-10-19T16:30:10.715Z,99.90
2022-10-19T16:32:39.875Z,99.90
2022-10-19T16:35:14.508Z,99.90
2022-10-19T16:37:41.703Z,99.90
2022-10-19T16:40:12.078Z,99.90
2022-10-19T16:42:42.354Z,99.90
2022-10-19T16:45:12.444Z,99.90
2022-10-19T16:47:41.827Z,99.90
2022-10-19T16:50:14.146Z,99.90
2022-10-19T16:52:41.601Z,99.90
2022-10-19T16:55:09.177Z,99.90
2022-10-19T16:57:37.088Z,99.90
2022-10-19T17:00:06.698Z,99.90
2022-10-19T17:02:36.838Z,99.90
2022-10-19T17:05:05.079Z,99.90
2022-10-19T17:07:32.292Z,99.90
2022-10-19T17:10:04.361Z,99.90
2022-10-19T17:12:35.037Z,99.90
2022-10-19T17:15:36.993Z,99.90
2022-10-19T17:17:50.274Z,99.90
2022-10-19T17:20:18.026Z,99.90
2022-10-19T17:22:45.714Z,99.90
2022-10-19T17:25:16.001Z,99.90
2022-10-19T17:27:43.900Z,99.90
2022-10-19T17:30:14.106Z,99.90
2022-10-19T17:32:41.341Z,99.90
2022-10-19T17:35:08.696Z,99.90
2022-10-19T17:37:36.821Z,99.90
2022-10-19T17:40:10.655Z,99.90
2022-10-19T17:42:41.007Z,99.90
2022-10-19T17:45:08.722Z,99.90
2022-10-19T17:47:38.404Z,99.90
2022-10-19T17:50:08.254Z,99.90
2022-10-19T17:52:38.614Z,99.90
2022-10-19T17:55:12.263Z,99.90
2022-10-19T17:57:40.731Z,99.90
2022-10-19T18:00:08.341Z,99.90
2022-10-19T18:02:38.488Z,99.90
2022-10-19T18:05:06.104Z,99.90
2022-10-19T18:07:33.518Z,99.90
2022-10-19T18:10:00.899Z,99.90
2022-10-19T18:12:28.189Z,99.90
2022-10-19T18:14:58.361Z,99.90
2022-10-19T18:17:27.786Z,99.90
2022-10-19T18:19:55.384Z,99.90
2022-10-19T18:22:24.752Z,99.90
2022-10-19T18:24:55.096Z,99.90
2022-10-19T18:27:22.365Z,99.90
2022-10-19T18:29:49.576Z,99.90
2022-10-19T18:32:16.875Z,99.90
2022-10-19T18:34:44.504Z,99.90
2022-10-19T18:37:12.290Z,99.90
2022-10-19T18:39:44.955Z,99.90
2022-10-19T18:42:12.837Z,99.90
2022-10-19T18:44:40.574Z,99.90
2022-10-19T18:47:08.301Z,99.90
2022-10-19T18:49:36.048Z,99.90
2022-10-19T18:52:03.275Z,99.90
2022-10-19T18:54:31.006Z,99.90
2022-10-19T18:56:58.206Z,99.90
2022-10-19T19:02:01.871Z,99.90
2022-10-19T19:04:29.156Z,99.90
2022-10-19T19:06:58.800Z,99.90
2022-10-19T19:09:26.013Z,99.90
2022-10-19T19:11:58.113Z,99.90
2022-10-19T19:14:26.379Z,99.90
2022-10-19T19:16:53.642Z,99.90
2022-10-19T19:19:25.271Z,99.90
2022-10-19T19:21:58.166Z,99.90
2022-10-19T19:24:31.504Z,99.90
2022-10-19T19:26:59.583Z,99.90
2022-10-19T19:29:27.935Z,99.90
2022-10-19T19:31:57.949Z,99.90
2022-10-19T19:34:28.422Z,99.90
2022-10-19T19:37:00.681Z,99.90
2022-10-19T19:39:27.997Z,99.90
2022-10-19T19:41:57.444Z,99.90
2022-10-19T19:44:29.562Z,99.90
2022-10-19T19:47:03.459Z,99.90
2022-10-19T19:49:31.252Z,99.90
2022-10-19T19:52:01.581Z,99.90
2022-10-19T19:54:28.776Z,99.90
2022-10-19T19:56:56.582Z,99.90
2022-10-19T19:59:26.126Z,99.90
2022-10-19T20:01:53.937Z,99.90
2022-10-19T20:04:21.294Z,99.90
2022-10-19T20:06:50.651Z,99.90
2022-10-19T20:09:17.897Z,99.90
2022-10-19T20:11:45.273Z,99.90
2022-10-19T20:14:12.529Z,99.90
2022-10-19T20:16:39.781Z,99.90
2022-10-19T20:19:12.866Z,99.90
2022-10-19T20:21:41.004Z,99.90
2022-10-19T20:24:09.612Z,99.90
2022-10-19T20:26:39.824Z,99.90
2022-10-19T20:29:07.729Z,99.90
2022-10-19T20:31:42.163Z,99.90
2022-10-19T20:34:18.547Z,99.90
2022-10-19T20:36:53.649Z,99.90
2022-10-19T20:39:21.291Z,99.90
2022-10-19T20:41:48.482Z,99.90
2022-10-19T20:44:15.730Z,99.90
2022-10-19T20:46:42.971Z,99.90
2022-10-19T20:49:12.729Z,99.90
2022-10-19T20:51:40.394Z,99.90
2022-10-19T20:54:12.369Z,99.90
2022-10-19T20:56:44.086Z,99.90
2022-10-19T20:59:19.307Z,99.90
2022-10-19T21:01:51.290Z,99.90
2022-10-19T21:04:19.008Z,99.90
2022-10-19T21:06:50.550Z,99.90
2022-10-19T21:09:22.879Z,99.90
2022-10-19T21:11:54.295Z,99.90
2022-10-19T21:14:28.518Z,99.90
2022-10-19T21:16:57.539Z,99.90
2022-10-19T21:19:27.242Z,99.90
2022-10-19T21:21:59.992Z,99.90
2022-10-19T21:24:33.396Z,99.90
2022-10-19T21:27:05.943Z,99.90
2022-10-19T21:29:34.168Z,99.90
2022-10-19T21:32:01.571Z,99.90
2022-10-19T21:34:30.804Z,99.90
2022-10-19T21:37:00.735Z,99.90
2022-10-19T21:39:28.418Z,99.90
2022-10-19T21:41:55.742Z,99.90
2022-10-19T21:44:23.250Z,99.90
2022-10-19T21:46:51.125Z,99.90
2022-10-19T21:49:24.023Z,99.90
2022-10-19T21:51:56.993Z,99.90
2022-10-19T21:54:25.168Z,99.90
2022-10-19T21:56:55.879Z,99.90
2022-10-19T21:59:23.093Z,99.90
2022-10-19T22:01:50.887Z,99.90
2022-10-19T22:04:18.717Z,99.90
2022-10-19T22:06:46.104Z,99.90
2022-10-19T22:09:19.510Z,99.90
2022-10-19T22:11:47.506Z,99.90
2022-10-19T22:14:16.782Z,99.90
2022-10-19T22:16:47.218Z,99.90
2022-10-19T22:19:16.903Z,99.90
2022-10-19T22:21:44.591Z,99.90
2022-10-19T22:24:17.528Z,99.90
2022-10-19T22:26:47.479Z,99.90
2022-10-19T22:29:17.199Z,99.90
2022-10-19T22:31:44.762Z,99.90
2022-10-19T22:34:17.374Z,99.90
2022-10-19T22:36:44.918Z,99.90
2022-10-19T22:39:15.568Z,99.90
2022-10-19T22:41:45.872Z,99.90
2022-10-19T22:44:16.076Z,99.90
2022-10-19T22:46:45.911Z,99.90
2022-10-19T22:49:16.804Z,99.90
2022-10-19T22:51:47.559Z,99.90
2022-10-19T22:54:17.972Z,99.90
2022-10-19T22:56:45.208Z,99.90
2022-10-19T22:59:13.069Z,99.90
2022-10-19T23:01:42.507Z,99.90
2022-10-19T23:04:10.321Z,99.90
2022-10-19T23:06:37.569Z,99.90
2022-10-19T23:09:04.882Z,99.90
2022-10-19T23:11:34.435Z,99.90
2022-10-19T23:14:01.896Z,99.90
2022-10-19T23:16:29.163Z,99.90
2022-10-19T23:18:56.425Z,99.90
2022-10-19T23:21:26.158Z,99.90
2022-10-19T23:23:53.840Z,99.90
2022-10-19T23:26:21.672Z,99.90
2022-10-19T23:28:53.863Z,99.90
2022-10-19T23:31:24.774Z,99.90
2022-10-19T23:33:53.430Z,99.90
2022-10-19T23:36:28.406Z,99.90
2022-10-19T23:38:57.409Z,99.90
2022-10-19T23:41:27.384Z,99.90
2022-10-19T23:43:57.481Z,99.90
2022-10-19T23:46:25.244Z,99.90
2022-10-19T23:48:52.546Z,99.90
2022-10-19T23:51:21.068Z,99.90
2022-10-19T23:53:53.260Z,99.90
2022-10-19T23:56:27.134Z,99.90
2022-10-19T23:58:55.832Z,99.90
